sensor_id;sensor_type;location;lat;lon;timestamp;P1;durP1;ratioP1;P2;durP2;ratioP2
4208;SDS011;36320;48.860;2.380;2022-10-31T00:01:56;12.35;;;2.10;;
4208;SDS011;36320;48.860;2.380;2022-10-31T00:07:18;10.52;;;2.72;;
4208;SDS011;36320;48.860;2.380;2022-10-31T00:09:44;10.30;;;2.30;;
4208;SDS011;36320;48.860;2.380;2022-10-31T00:12:10;9.80;;;2.38;;
4208;SDS011;36320;48.860;2.380;2022-10-31T00:14:35;9.20;;;2.53;;
4208;SDS011;36320;48.860;2.380;2022-10-31T00:17:02;11.30;;;2.55;;
4208;SDS011;36320;48.860;2.380;2022-10-31T00:19:28;13.53;;;3.00;;
4208;SDS011;36320;48.860;2.380;2022-10-31T00:21:54;13.55;;;3.30;;
4208;SDS011;36320;48.860;2.380;2022-10-31T00:24:21;10.00;;;2.77;;
4208;SDS011;36320;48.860;2.380;2022-10-31T00:26:46;13.35;;;3.30;;
4208;SDS011;36320;48.860;2.380;2022-10-31T00:29:12;10.70;;;3.60;;
4208;SDS011;36320;48.860;2.380;2022-10-31T00:31:38;10.75;;;2.85;;
4208;SDS011;36320;48.860;2.380;2022-10-31T00:34:04;11.70;;;3.10;;
4208;SDS011;36320;48.860;2.380;2022-10-31T00:36:29;12.60;;;3.40;;
4208;SDS011;36320;48.860;2.380;2022-10-31T00:38:55;13.10;;;3.10;;
4208;SDS011;36320;48.860;2.380;2022-10-31T00:41:24;13.05;;;3.50;;
4208;SDS011;36320;48.860;2.380;2022-10-31T00:43:50;12.60;;;3.60;;
4208;SDS011;36320;48.860;2.380;2022-10-31T00:46:16;10.93;;;2.90;;
4208;SDS011;36320;48.860;2.380;2022-10-31T00:48:42;19.90;;;3.90;;
4208;SDS011;36320;48.860;2.380;2022-10-31T00:51:08;12.73;;;3.80;;
4208;SDS011;36320;48.860;2.380;2022-10-31T00:53:34;11.07;;;3.10;;
4208;SDS011;36320;48.860;2.380;2022-10-31T00:56:00;16.20;;;3.25;;
4208;SDS011;36320;48.860;2.380;2022-10-31T00:58:26;12.98;;;3.30;;
4208;SDS011;36320;48.860;2.380;2022-10-31T01:00:52;13.40;;;3.03;;
4208;SDS011;36320;48.860;2.380;2022-10-31T01:03:22;10.93;;;2.95;;
4208;SDS011;36320;48.860;2.380;2022-10-31T01:05:59;14.45;;;3.78;;
4208;SDS011;36320;48.860;2.380;2022-10-31T01:08:32;12.80;;;3.47;;
4208;SDS011;36320;48.860;2.380;2022-10-31T01:11:02;11.40;;;3.30;;
4208;SDS011;36320;48.860;2.380;2022-10-31T01:13:30;13.02;;;3.65;;
4208;SDS011;36320;48.860;2.380;2022-10-31T01:15:57;9.75;;;2.90;;
4208;SDS011;36320;48.860;2.380;2022-10-31T01:18:24;12.02;;;3.15;;
4208;SDS011;36320;48.860;2.380;2022-10-31T01:21:24;13.85;;;3.30;;
4208;SDS011;36320;48.860;2.380;2022-10-31T01:23:44;13.75;;;3.30;;
4208;SDS011;36320;48.860;2.380;2022-10-31T01:26:13;12.20;;;3.60;;
4208;SDS011;36320;48.860;2.380;2022-10-31T01:31:10;16.08;;;3.65;;
4208;SDS011;36320;48.860;2.380;2022-10-31T01:33:37;14.00;;;3.30;;
4208;SDS011;36320;48.860;2.380;2022-10-31T01:36:13;15.90;;;3.90;;
4208;SDS011;36320;48.860;2.380;2022-10-31T01:38:45;12.70;;;3.20;;
4208;SDS011;36320;48.860;2.380;2022-10-31T01:41:12;11.88;;;3.40;;
4208;SDS011;36320;48.860;2.380;2022-10-31T01:46:20;15.57;;;4.03;;
4208;SDS011;36320;48.860;2.380;2022-10-31T01:48:52;11.93;;;3.63;;
4208;SDS011;36320;48.860;2.380;2022-10-31T01:51:21;12.40;;;3.70;;
4208;SDS011;36320;48.860;2.380;2022-10-31T01:53:51;12.57;;;3.30;;
4208;SDS011;36320;48.860;2.380;2022-10-31T01:56:20;11.98;;;4.00;;
4208;SDS011;36320;48.860;2.380;2022-10-31T01:58:47;13.63;;;3.58;;
4208;SDS011;36320;48.860;2.380;2022-10-31T02:01:13;17.17;;;4.10;;
4208;SDS011;36320;48.860;2.380;2022-10-31T02:03:42;12.65;;;3.58;;
4208;SDS011;36320;48.860;2.380;2022-10-31T02:06:10;13.18;;;3.53;;
4208;SDS011;36320;48.860;2.380;2022-10-31T02:08:44;16.00;;;4.20;;
4208;SDS011;36320;48.860;2.380;2022-10-31T02:11:10;13.43;;;4.03;;
4208;SDS011;36320;48.860;2.380;2022-10-31T02:13:37;12.80;;;3.70;;
4208;SDS011;36320;48.860;2.380;2022-10-31T02:16:03;13.53;;;3.97;;
4208;SDS011;36320;48.860;2.380;2022-10-31T02:18:29;14.43;;;3.90;;
4208;SDS011;36320;48.860;2.380;2022-10-31T02:20:58;12.00;;;3.90;;
4208;SDS011;36320;48.860;2.380;2022-10-31T02:23:33;10.73;;;3.43;;
4208;SDS011;36320;48.860;2.380;2022-10-31T02:26:29;11.52;;;3.30;;
4208;SDS011;36320;48.860;2.380;2022-10-31T02:29:23;11.98;;;3.70;;
4208;SDS011;36320;48.860;2.380;2022-10-31T02:34:39;15.10;;;3.85;;
4208;SDS011;36320;48.860;2.380;2022-10-31T02:37:37;12.05;;;3.60;;
4208;SDS011;36320;48.860;2.380;2022-10-31T02:43:18;13.75;;;3.65;;
4208;SDS011;36320;48.860;2.380;2022-10-31T02:46:03;11.63;;;3.60;;
4208;SDS011;36320;48.860;2.380;2022-10-31T02:48:44;13.67;;;3.20;;
4208;SDS011;36320;48.860;2.380;2022-10-31T02:51:13;15.82;;;3.63;;
4208;SDS011;36320;48.860;2.380;2022-10-31T02:53:40;10.47;;;3.30;;
4208;SDS011;36320;48.860;2.380;2022-10-31T02:58:38;9.75;;;3.20;;
4208;SDS011;36320;48.860;2.380;2022-10-31T03:11:58;10.60;;;3.33;;
4208;SDS011;36320;48.860;2.380;2022-10-31T03:14:45;12.90;;;3.20;;
4208;SDS011;36320;48.860;2.380;2022-10-31T03:17:36;14.45;;;3.40;;
4208;SDS011;36320;48.860;2.380;2022-10-31T03:20:06;12.30;;;3.70;;
4208;SDS011;36320;48.860;2.380;2022-10-31T03:22:33;11.88;;;3.20;;
4208;SDS011;36320;48.860;2.380;2022-10-31T03:25:04;13.70;;;3.40;;
4208;SDS011;36320;48.860;2.380;2022-10-31T03:27:31;14.63;;;4.10;;
4208;SDS011;36320;48.860;2.380;2022-10-31T03:30:03;11.40;;;2.90;;
4208;SDS011;36320;48.860;2.380;2022-10-31T03:32:40;13.32;;;3.83;;
4208;SDS011;36320;48.860;2.380;2022-10-31T03:35:09;18.23;;;3.55;;
4208;SDS011;36320;48.860;2.380;2022-10-31T03:37:38;12.10;;;3.50;;
4208;SDS011;36320;48.860;2.380;2022-10-31T03:40:06;10.88;;;3.00;;
4208;SDS011;36320;48.860;2.380;2022-10-31T03:42:34;14.35;;;3.70;;
4208;SDS011;36320;48.860;2.380;2022-10-31T03:45:08;16.55;;;3.60;;
4208;SDS011;36320;48.860;2.380;2022-10-31T03:47:36;11.57;;;3.20;;
4208;SDS011;36320;48.860;2.380;2022-10-31T03:50:05;20.10;;;3.75;;
4208;SDS011;36320;48.860;2.380;2022-10-31T03:55:09;16.00;;;3.30;;
4208;SDS011;36320;48.860;2.380;2022-10-31T03:57:48;11.07;;;3.37;;
4208;SDS011;36320;48.860;2.380;2022-10-31T04:00:20;12.53;;;3.77;;
4208;SDS011;36320;48.860;2.380;2022-10-31T04:02:50;10.38;;;3.15;;
4208;SDS011;36320;48.860;2.380;2022-10-31T04:05:38;13.00;;;3.40;;
4208;SDS011;36320;48.860;2.380;2022-10-31T04:08:07;14.55;;;3.50;;
4208;SDS011;36320;48.860;2.380;2022-10-31T04:10:37;13.00;;;3.30;;
4208;SDS011;36320;48.860;2.380;2022-10-31T04:13:09;11.85;;;3.35;;
4208;SDS011;36320;48.860;2.380;2022-10-31T04:15:37;11.63;;;3.50;;
4208;SDS011;36320;48.860;2.380;2022-10-31T04:18:04;12.10;;;3.05;;
4208;SDS011;36320;48.860;2.380;2022-10-31T04:20:34;10.60;;;3.17;;
4208;SDS011;36320;48.860;2.380;2022-10-31T04:23:02;12.40;;;3.30;;
4208;SDS011;36320;48.860;2.380;2022-10-31T04:25:29;14.18;;;3.53;;
4208;SDS011;36320;48.860;2.380;2022-10-31T04:27:56;15.63;;;3.30;;
4208;SDS011;36320;48.860;2.380;2022-10-31T04:30:22;11.20;;;2.90;;
4208;SDS011;36320;48.860;2.380;2022-10-31T04:32:48;17.50;;;3.00;;
4208;SDS011;36320;48.860;2.380;2022-10-31T04:35:15;10.90;;;2.80;;
4208;SDS011;36320;48.860;2.380;2022-10-31T04:37:41;17.03;;;3.90;;
4208;SDS011;36320;48.860;2.380;2022-10-31T04:40:07;9.60;;;2.90;;
4208;SDS011;36320;48.860;2.380;2022-10-31T04:42:33;10.90;;;3.10;;
4208;SDS011;36320;48.860;2.380;2022-10-31T04:44:58;13.40;;;3.05;;
4208;SDS011;36320;48.860;2.380;2022-10-31T04:47:24;13.00;;;2.73;;
4208;SDS011;36320;48.860;2.380;2022-10-31T04:49:51;10.87;;;3.13;;
4208;SDS011;36320;48.860;2.380;2022-10-31T04:52:17;13.25;;;3.30;;
4208;SDS011;36320;48.860;2.380;2022-10-31T04:54:42;12.13;;;2.97;;
4208;SDS011;36320;48.860;2.380;2022-10-31T04:57:08;12.65;;;3.10;;
4208;SDS011;36320;48.860;2.380;2022-10-31T04:59:34;10.68;;;2.60;;
4208;SDS011;36320;48.860;2.380;2022-10-31T05:01:59;11.60;;;2.90;;
4208;SDS011;36320;48.860;2.380;2022-10-31T05:04:25;12.83;;;2.70;;
4208;SDS011;36320;48.860;2.380;2022-10-31T05:06:53;12.30;;;3.63;;
4208;SDS011;36320;48.860;2.380;2022-10-31T05:09:18;13.90;;;3.40;;
4208;SDS011;36320;48.860;2.380;2022-10-31T05:11:44;13.43;;;3.28;;
4208;SDS011;36320;48.860;2.380;2022-10-31T05:14:10;10.27;;;3.00;;
4208;SDS011;36320;48.860;2.380;2022-10-31T05:16:35;14.63;;;3.50;;
4208;SDS011;36320;48.860;2.380;2022-10-31T05:19:01;11.80;;;2.90;;
4208;SDS011;36320;48.860;2.380;2022-10-31T05:21:27;9.40;;;2.70;;
4208;SDS011;36320;48.860;2.380;2022-10-31T05:23:54;8.70;;;2.75;;
4208;SDS011;36320;48.860;2.380;2022-10-31T05:26:20;8.43;;;2.30;;
4208;SDS011;36320;48.860;2.380;2022-10-31T05:28:47;17.20;;;2.75;;
4208;SDS011;36320;48.860;2.380;2022-10-31T05:31:12;10.90;;;2.70;;
4208;SDS011;36320;48.860;2.380;2022-10-31T05:33:39;10.40;;;2.70;;
4208;SDS011;36320;48.860;2.380;2022-10-31T05:36:05;10.10;;;2.50;;
4208;SDS011;36320;48.860;2.380;2022-10-31T05:38:31;10.27;;;2.50;;
4208;SDS011;36320;48.860;2.380;2022-10-31T05:40:57;11.60;;;2.70;;
4208;SDS011;36320;48.860;2.380;2022-10-31T05:43:24;9.10;;;2.50;;
4208;SDS011;36320;48.860;2.380;2022-10-31T05:45:54;13.63;;;2.78;;
4208;SDS011;36320;48.860;2.380;2022-10-31T05:48:20;10.40;;;2.67;;
4208;SDS011;36320;48.860;2.380;2022-10-31T05:50:47;13.43;;;3.17;;
4208;SDS011;36320;48.860;2.380;2022-10-31T05:53:14;8.50;;;2.37;;
4208;SDS011;36320;48.860;2.380;2022-10-31T05:55:40;12.47;;;2.53;;
4208;SDS011;36320;48.860;2.380;2022-10-31T05:58:07;11.30;;;2.90;;
4208;SDS011;36320;48.860;2.380;2022-10-31T06:00:34;9.17;;;2.40;;
4208;SDS011;36320;48.860;2.380;2022-10-31T06:03:04;10.60;;;2.40;;
4208;SDS011;36320;48.860;2.380;2022-10-31T06:05:34;12.85;;;2.50;;
4208;SDS011;36320;48.860;2.380;2022-10-31T06:08:00;11.32;;;2.85;;
4208;SDS011;36320;48.860;2.380;2022-10-31T06:10:26;11.10;;;2.70;;
4208;SDS011;36320;48.860;2.380;2022-10-31T06:12:56;12.63;;;3.08;;
4208;SDS011;36320;48.860;2.380;2022-10-31T06:15:22;12.90;;;2.78;;
4208;SDS011;36320;48.860;2.380;2022-10-31T06:17:56;10.93;;;2.75;;
4208;SDS011;36320;48.860;2.380;2022-10-31T06:20:23;17.13;;;3.38;;
4208;SDS011;36320;48.860;2.380;2022-10-31T06:22:48;11.00;;;2.50;;
4208;SDS011;36320;48.860;2.380;2022-10-31T06:25:14;9.75;;;2.58;;
4208;SDS011;36320;48.860;2.380;2022-10-31T06:27:40;9.52;;;2.95;;
4208;SDS011;36320;48.860;2.380;2022-10-31T06:30:07;11.50;;;2.65;;
4208;SDS011;36320;48.860;2.380;2022-10-31T06:32:33;9.30;;;2.60;;
4208;SDS011;36320;48.860;2.380;2022-10-31T06:35:00;10.00;;;2.47;;
4208;SDS011;36320;48.860;2.380;2022-10-31T06:37:26;9.30;;;2.50;;
4208;SDS011;36320;48.860;2.380;2022-10-31T06:39:53;11.07;;;3.20;;
4208;SDS011;36320;48.860;2.380;2022-10-31T06:42:19;10.27;;;3.17;;
4208;SDS011;36320;48.860;2.380;2022-10-31T06:44:45;11.77;;;2.47;;
4208;SDS011;36320;48.860;2.380;2022-10-31T06:47:10;10.85;;;2.45;;
4208;SDS011;36320;48.860;2.380;2022-10-31T06:49:36;9.53;;;2.93;;
4208;SDS011;36320;48.860;2.380;2022-10-31T06:52:02;15.15;;;2.60;;
4208;SDS011;36320;48.860;2.380;2022-10-31T06:54:28;13.70;;;2.70;;
4208;SDS011;36320;48.860;2.380;2022-10-31T06:56:53;14.65;;;2.65;;
4208;SDS011;36320;48.860;2.380;2022-10-31T06:59:20;10.00;;;2.40;;
4208;SDS011;36320;48.860;2.380;2022-10-31T07:01:46;11.48;;;2.72;;
4208;SDS011;36320;48.860;2.380;2022-10-31T07:04:12;11.33;;;2.70;;
4208;SDS011;36320;48.860;2.380;2022-10-31T07:06:38;10.60;;;3.28;;
4208;SDS011;36320;48.860;2.380;2022-10-31T07:09:04;12.40;;;2.93;;
4208;SDS011;36320;48.860;2.380;2022-10-31T07:11:30;10.75;;;2.65;;
4208;SDS011;36320;48.860;2.380;2022-10-31T07:13:56;10.88;;;2.78;;
4208;SDS011;36320;48.860;2.380;2022-10-31T07:16:22;14.85;;;3.20;;
4208;SDS011;36320;48.860;2.380;2022-10-31T07:18:47;12.27;;;2.90;;
4208;SDS011;36320;48.860;2.380;2022-10-31T07:21:15;15.50;;;2.90;;
4208;SDS011;36320;48.860;2.380;2022-10-31T07:23:42;13.35;;;3.05;;
4208;SDS011;36320;48.860;2.380;2022-10-31T07:26:08;12.87;;;3.10;;
4208;SDS011;36320;48.860;2.380;2022-10-31T07:28:35;13.50;;;3.27;;
4208;SDS011;36320;48.860;2.380;2022-10-31T07:31:01;12.15;;;3.90;;
4208;SDS011;36320;48.860;2.380;2022-10-31T07:33:26;13.00;;;2.73;;
4208;SDS011;36320;48.860;2.380;2022-10-31T07:35:53;10.48;;;2.70;;
4208;SDS011;36320;48.860;2.380;2022-10-31T07:38:19;14.60;;;3.90;;
4208;SDS011;36320;48.860;2.380;2022-10-31T07:40:49;11.40;;;2.80;;
4208;SDS011;36320;48.860;2.380;2022-10-31T07:43:18;12.20;;;3.17;;
4208;SDS011;36320;48.860;2.380;2022-10-31T07:45:48;14.25;;;3.20;;
4208;SDS011;36320;48.860;2.380;2022-10-31T07:48:15;12.88;;;2.92;;
4208;SDS011;36320;48.860;2.380;2022-10-31T07:50:41;18.00;;;3.40;;
4208;SDS011;36320;48.860;2.380;2022-10-31T07:53:07;14.00;;;3.50;;
4208;SDS011;36320;48.860;2.380;2022-10-31T07:55:36;16.50;;;3.78;;
4208;SDS011;36320;48.860;2.380;2022-10-31T07:58:15;10.10;;;2.92;;
4208;SDS011;36320;48.860;2.380;2022-10-31T08:00:43;12.48;;;3.88;;
4208;SDS011;36320;48.860;2.380;2022-10-31T08:03:11;12.98;;;3.13;;
4208;SDS011;36320;48.860;2.380;2022-10-31T08:05:38;16.55;;;2.80;;
4208;SDS011;36320;48.860;2.380;2022-10-31T08:08:06;13.98;;;3.42;;
4208;SDS011;36320;48.860;2.380;2022-10-31T08:10:33;10.38;;;3.25;;
4208;SDS011;36320;48.860;2.380;2022-10-31T08:13:03;13.88;;;3.70;;
4208;SDS011;36320;48.860;2.380;2022-10-31T08:15:33;25.88;;;3.22;;
4208;SDS011;36320;48.860;2.380;2022-10-31T08:18:04;13.57;;;3.00;;
4208;SDS011;36320;48.860;2.380;2022-10-31T08:20:31;17.02;;;4.35;;
4208;SDS011;36320;48.860;2.380;2022-10-31T08:22:57;17.17;;;5.07;;
4208;SDS011;36320;48.860;2.380;2022-10-31T08:25:25;18.85;;;3.88;;
4208;SDS011;36320;48.860;2.380;2022-10-31T08:27:54;14.02;;;4.30;;
4208;SDS011;36320;48.860;2.380;2022-10-31T08:30:24;20.92;;;4.07;;
4208;SDS011;36320;48.860;2.380;2022-10-31T08:35:38;16.80;;;4.03;;
4208;SDS011;36320;48.860;2.380;2022-10-31T08:38:05;11.82;;;3.90;;
4208;SDS011;36320;48.860;2.380;2022-10-31T08:40:33;23.85;;;4.63;;
4208;SDS011;36320;48.860;2.380;2022-10-31T08:43:08;21.02;;;5.82;;
4208;SDS011;36320;48.860;2.380;2022-10-31T08:45:40;13.13;;;4.63;;
4208;SDS011;36320;48.860;2.380;2022-10-31T08:48:08;18.33;;;4.10;;
4208;SDS011;36320;48.860;2.380;2022-10-31T08:50:36;21.52;;;3.78;;
4208;SDS011;36320;48.860;2.380;2022-10-31T08:53:04;12.65;;;4.65;;
4208;SDS011;36320;48.860;2.380;2022-10-31T08:55:41;18.20;;;4.60;;
4208;SDS011;36320;48.860;2.380;2022-10-31T08:58:18;25.98;;;4.32;;
4208;SDS011;36320;48.860;2.380;2022-10-31T09:00:46;15.27;;;3.78;;
4208;SDS011;36320;48.860;2.380;2022-10-31T09:03:23;16.90;;;3.80;;
4208;SDS011;36320;48.860;2.380;2022-10-31T09:05:50;13.95;;;4.40;;
4208;SDS011;36320;48.860;2.380;2022-10-31T09:08:19;14.93;;;4.50;;
4208;SDS011;36320;48.860;2.380;2022-10-31T09:10:48;10.98;;;3.55;;
4208;SDS011;36320;48.860;2.380;2022-10-31T09:13:21;15.10;;;4.45;;
4208;SDS011;36320;48.860;2.380;2022-10-31T09:15:48;18.73;;;4.45;;
4208;SDS011;36320;48.860;2.380;2022-10-31T09:18:17;17.33;;;4.70;;
4208;SDS011;36320;48.860;2.380;2022-10-31T09:20:46;18.67;;;4.70;;
4208;SDS011;36320;48.860;2.380;2022-10-31T09:23:14;15.33;;;4.60;;
4208;SDS011;36320;48.860;2.380;2022-10-31T09:25:41;15.80;;;4.30;;
4208;SDS011;36320;48.860;2.380;2022-10-31T09:28:11;16.65;;;3.90;;
4208;SDS011;36320;48.860;2.380;2022-10-31T09:30:38;14.55;;;4.00;;
4208;SDS011;36320;48.860;2.380;2022-10-31T09:33:10;17.65;;;4.32;;
4208;SDS011;36320;48.860;2.380;2022-10-31T09:35:38;15.32;;;4.38;;
4208;SDS011;36320;48.860;2.380;2022-10-31T09:38:06;19.98;;;4.57;;
4208;SDS011;36320;48.860;2.380;2022-10-31T09:40:47;17.73;;;3.88;;
4208;SDS011;36320;48.860;2.380;2022-10-31T09:43:25;18.30;;;4.50;;
4208;SDS011;36320;48.860;2.380;2022-10-31T09:48:44;14.02;;;4.10;;
4208;SDS011;36320;48.860;2.380;2022-10-31T09:51:24;13.75;;;4.13;;
4208;SDS011;36320;48.860;2.380;2022-10-31T09:54:06;22.35;;;5.20;;
4208;SDS011;36320;48.860;2.380;2022-10-31T09:56:40;18.17;;;4.07;;
4208;SDS011;36320;48.860;2.380;2022-10-31T09:59:11;14.02;;;4.45;;
4208;SDS011;36320;48.860;2.380;2022-10-31T10:02:17;13.85;;;4.65;;
4208;SDS011;36320;48.860;2.380;2022-10-31T10:04:59;16.42;;;4.10;;
4208;SDS011;36320;48.860;2.380;2022-10-31T10:10:13;17.10;;;4.43;;
4208;SDS011;36320;48.860;2.380;2022-10-31T10:15:32;15.75;;;4.50;;
4208;SDS011;36320;48.860;2.380;2022-10-31T10:23:31;16.13;;;4.15;;
4208;SDS011;36320;48.860;2.380;2022-10-31T10:26:15;17.58;;;4.28;;
4208;SDS011;36320;48.860;2.380;2022-10-31T10:29:07;13.65;;;4.45;;
4208;SDS011;36320;48.860;2.380;2022-10-31T10:31:45;14.95;;;3.83;;
4208;SDS011;36320;48.860;2.380;2022-10-31T10:34:47;21.88;;;4.20;;
4208;SDS011;36320;48.860;2.380;2022-10-31T10:37:28;15.02;;;4.28;;
4208;SDS011;36320;48.860;2.380;2022-10-31T10:40:11;13.07;;;4.03;;
4208;SDS011;36320;48.860;2.380;2022-10-31T10:42:50;21.77;;;4.25;;
4208;SDS011;36320;48.860;2.380;2022-10-31T10:45:52;15.60;;;4.45;;
4208;SDS011;36320;48.860;2.380;2022-10-31T10:57:35;12.30;;;3.67;;
4208;SDS011;36320;48.860;2.380;2022-10-31T11:02:50;15.82;;;3.55;;
4208;SDS011;36320;48.860;2.380;2022-10-31T11:08:25;14.37;;;2.90;;
4208;SDS011;36320;48.860;2.380;2022-10-31T11:11:00;15.38;;;3.50;;
4208;SDS011;36320;48.860;2.380;2022-10-31T11:13:42;17.60;;;3.53;;
4208;SDS011;36320;48.860;2.380;2022-10-31T11:16:14;19.23;;;3.00;;
4208;SDS011;36320;48.860;2.380;2022-10-31T11:19:08;17.65;;;3.95;;
4208;SDS011;36320;48.860;2.380;2022-10-31T11:21:49;12.52;;;3.40;;
4208;SDS011;36320;48.860;2.380;2022-10-31T11:24:19;15.75;;;3.78;;
4208;SDS011;36320;48.860;2.380;2022-10-31T11:26:48;12.95;;;3.95;;
4208;SDS011;36320;48.860;2.380;2022-10-31T11:29:23;14.15;;;4.25;;
4208;SDS011;36320;48.860;2.380;2022-10-31T11:31:53;14.10;;;2.90;;
4208;SDS011;36320;48.860;2.380;2022-10-31T11:34:30;18.40;;;3.63;;
4208;SDS011;36320;48.860;2.380;2022-10-31T11:37:24;14.57;;;3.63;;
4208;SDS011;36320;48.860;2.380;2022-10-31T11:39:53;11.50;;;3.45;;
4208;SDS011;36320;48.860;2.380;2022-10-31T11:42:21;14.63;;;3.95;;
4208;SDS011;36320;48.860;2.380;2022-10-31T11:44:51;13.68;;;4.00;;
4208;SDS011;36320;48.860;2.380;2022-10-31T11:47:23;13.25;;;3.75;;
4208;SDS011;36320;48.860;2.380;2022-10-31T11:49:59;19.60;;;3.80;;
4208;SDS011;36320;48.860;2.380;2022-10-31T11:52:36;16.40;;;3.90;;
4208;SDS011;36320;48.860;2.380;2022-10-31T11:55:14;19.02;;;2.90;;
4208;SDS011;36320;48.860;2.380;2022-10-31T11:57:43;19.95;;;3.60;;
4208;SDS011;36320;48.860;2.380;2022-10-31T12:00:22;12.65;;;3.30;;
4208;SDS011;36320;48.860;2.380;2022-10-31T12:02:51;14.43;;;4.03;;
4208;SDS011;36320;48.860;2.380;2022-10-31T12:05:29;16.70;;;4.38;;
4208;SDS011;36320;48.860;2.380;2022-10-31T12:07:58;14.52;;;3.95;;
4208;SDS011;36320;48.860;2.380;2022-10-31T12:10:28;10.35;;;3.10;;
4208;SDS011;36320;48.860;2.380;2022-10-31T12:16:42;21.65;;;3.60;;
4208;SDS011;36320;48.860;2.380;2022-10-31T12:18:59;13.20;;;3.50;;
4208;SDS011;36320;48.860;2.380;2022-10-31T12:24:45;13.03;;;3.90;;
4208;SDS011;36320;48.860;2.380;2022-10-31T12:27:34;14.10;;;3.50;;
4208;SDS011;36320;48.860;2.380;2022-10-31T12:30:23;14.10;;;3.08;;
4208;SDS011;36320;48.860;2.380;2022-10-31T12:33:30;17.17;;;4.40;;
4208;SDS011;36320;48.860;2.380;2022-10-31T12:39:07;13.45;;;3.40;;
4208;SDS011;36320;48.860;2.380;2022-10-31T12:55:40;12.65;;;2.97;;
4208;SDS011;36320;48.860;2.380;2022-10-31T12:58:46;10.48;;;2.95;;
4208;SDS011;36320;48.860;2.380;2022-10-31T13:01:32;18.02;;;3.00;;
4208;SDS011;36320;48.860;2.380;2022-10-31T13:06:59;21.50;;;3.30;;
4208;SDS011;36320;48.860;2.380;2022-10-31T13:09:32;20.73;;;3.90;;
4208;SDS011;36320;48.860;2.380;2022-10-31T13:12:10;12.23;;;3.50;;
4208;SDS011;36320;48.860;2.380;2022-10-31T13:14:42;17.05;;;3.38;;
4208;SDS011;36320;48.860;2.380;2022-10-31T13:20:16;18.73;;;3.25;;
4208;SDS011;36320;48.860;2.380;2022-10-31T13:22:56;13.48;;;3.25;;
4208;SDS011;36320;48.860;2.380;2022-10-31T13:25:44;16.60;;;3.15;;
4208;SDS011;36320;48.860;2.380;2022-10-31T13:30:52;23.20;;;3.60;;
4208;SDS011;36320;48.860;2.380;2022-10-31T13:33:22;14.90;;;2.80;;
4208;SDS011;36320;48.860;2.380;2022-10-31T13:39:03;13.32;;;3.10;;
4208;SDS011;36320;48.860;2.380;2022-10-31T13:44:48;9.35;;;2.72;;
4208;SDS011;36320;48.860;2.380;2022-10-31T13:47:20;21.02;;;3.90;;
4208;SDS011;36320;48.860;2.380;2022-10-31T13:56:30;20.00;;;4.25;;
4208;SDS011;36320;48.860;2.380;2022-10-31T13:58:42;16.27;;;3.93;;
4208;SDS011;36320;48.860;2.380;2022-10-31T14:01:25;10.93;;;3.00;;
4208;SDS011;36320;48.860;2.380;2022-10-31T14:03:56;16.60;;;3.47;;
4208;SDS011;36320;48.860;2.380;2022-10-31T14:09:22;20.02;;;3.47;;
4208;SDS011;36320;48.860;2.380;2022-10-31T14:11:53;16.98;;;3.70;;
4208;SDS011;36320;48.860;2.380;2022-10-31T14:14:29;14.68;;;3.45;;
4208;SDS011;36320;48.860;2.380;2022-10-31T14:16:59;13.52;;;3.10;;
4208;SDS011;36320;48.860;2.380;2022-10-31T14:19:27;18.85;;;3.50;;
4208;SDS011;36320;48.860;2.380;2022-10-31T14:21:53;12.00;;;2.90;;
4208;SDS011;36320;48.860;2.380;2022-10-31T14:27:00;18.77;;;3.63;;
4208;SDS011;36320;48.860;2.380;2022-10-31T14:29:29;17.37;;;3.30;;
4208;SDS011;36320;48.860;2.380;2022-10-31T14:48:29;13.33;;;2.93;;
4208;SDS011;36320;48.860;2.380;2022-10-31T14:51:22;16.25;;;3.30;;
4208;SDS011;36320;48.860;2.380;2022-10-31T14:53:52;13.15;;;3.72;;
4208;SDS011;36320;48.860;2.380;2022-10-31T14:56:28;22.92;;;4.43;;
4208;SDS011;36320;48.860;2.380;2022-10-31T14:58:56;21.17;;;3.50;;
4208;SDS011;36320;48.860;2.380;2022-10-31T15:03:54;10.45;;;2.55;;
4208;SDS011;36320;48.860;2.380;2022-10-31T15:06:48;11.85;;;3.10;;
4208;SDS011;36320;48.860;2.380;2022-10-31T15:09:21;13.80;;;3.00;;
4208;SDS011;36320;48.860;2.380;2022-10-31T15:11:53;14.15;;;3.15;;
4208;SDS011;36320;48.860;2.380;2022-10-31T15:16:49;12.52;;;2.95;;
4208;SDS011;36320;48.860;2.380;2022-10-31T15:19:18;12.85;;;2.92;;
4208;SDS011;36320;48.860;2.380;2022-10-31T15:21:51;13.45;;;2.92;;
4208;SDS011;36320;48.860;2.380;2022-10-31T15:24:19;21.63;;;3.90;;
4208;SDS011;36320;48.860;2.380;2022-10-31T15:26:49;17.93;;;3.03;;
4208;SDS011;36320;48.860;2.380;2022-10-31T15:29:21;16.90;;;2.95;;
4208;SDS011;36320;48.860;2.380;2022-10-31T15:31:55;13.55;;;3.00;;
4208;SDS011;36320;48.860;2.380;2022-10-31T15:37:03;13.60;;;2.90;;
4208;SDS011;36320;48.860;2.380;2022-10-31T15:39:28;11.48;;;3.00;;
4208;SDS011;36320;48.860;2.380;2022-10-31T15:41:55;12.50;;;3.07;;
4208;SDS011;36320;48.860;2.380;2022-10-31T15:47:06;15.88;;;3.75;;
4208;SDS011;36320;48.860;2.380;2022-10-31T15:49:46;16.97;;;4.63;;
4208;SDS011;36320;48.860;2.380;2022-10-31T15:55:36;18.17;;;3.15;;
4208;SDS011;36320;48.860;2.380;2022-10-31T15:57:58;18.15;;;3.92;;
4208;SDS011;36320;48.860;2.380;2022-10-31T16:00:29;15.25;;;2.80;;
4208;SDS011;36320;48.860;2.380;2022-10-31T16:08:54;11.18;;;2.95;;
4208;SDS011;36320;48.860;2.380;2022-10-31T16:16:25;15.45;;;3.10;;
4208;SDS011;36320;48.860;2.380;2022-10-31T16:18:54;16.45;;;3.65;;
4208;SDS011;36320;48.860;2.380;2022-10-31T16:21:28;16.60;;;3.90;;
4208;SDS011;36320;48.860;2.380;2022-10-31T16:23:58;12.20;;;2.60;;
4208;SDS011;36320;48.860;2.380;2022-10-31T16:26:38;18.30;;;3.30;;
4208;SDS011;36320;48.860;2.380;2022-10-31T16:29:04;14.50;;;3.67;;
4208;SDS011;36320;48.860;2.380;2022-10-31T16:31:35;11.97;;;2.70;;
4208;SDS011;36320;48.860;2.380;2022-10-31T16:34:14;11.20;;;2.70;;
4208;SDS011;36320;48.860;2.380;2022-10-31T16:36:43;11.07;;;2.92;;
4208;SDS011;36320;48.860;2.380;2022-10-31T16:39:09;18.92;;;3.05;;
4208;SDS011;36320;48.860;2.380;2022-10-31T16:41:39;14.05;;;3.40;;
4208;SDS011;36320;48.860;2.380;2022-10-31T16:46:43;10.20;;;2.67;;
4208;SDS011;36320;48.860;2.380;2022-10-31T16:49:10;15.00;;;3.20;;
4208;SDS011;36320;48.860;2.380;2022-10-31T16:51:37;11.55;;;3.13;;
4208;SDS011;36320;48.860;2.380;2022-10-31T16:54:04;9.20;;;2.30;;
4208;SDS011;36320;48.860;2.380;2022-10-31T16:56:32;14.60;;;4.60;;
4208;SDS011;36320;48.860;2.380;2022-10-31T16:59:02;14.18;;;3.00;;
4208;SDS011;36320;48.860;2.380;2022-10-31T17:01:32;14.30;;;3.00;;
4208;SDS011;36320;48.860;2.380;2022-10-31T17:04:00;13.95;;;3.28;;
4208;SDS011;36320;48.860;2.380;2022-10-31T17:06:26;16.63;;;3.30;;
4208;SDS011;36320;48.860;2.380;2022-10-31T17:08:53;14.52;;;2.90;;
4208;SDS011;36320;48.860;2.380;2022-10-31T17:11:20;30.05;;;4.47;;
4208;SDS011;36320;48.860;2.380;2022-10-31T17:13:49;15.00;;;3.93;;
4208;SDS011;36320;48.860;2.380;2022-10-31T17:16:16;17.80;;;2.95;;
4208;SDS011;36320;48.860;2.380;2022-10-31T17:18:42;12.30;;;3.38;;
4208;SDS011;36320;48.860;2.380;2022-10-31T17:21:12;14.07;;;3.38;;
4208;SDS011;36320;48.860;2.380;2022-10-31T17:23:44;15.63;;;2.97;;
4208;SDS011;36320;48.860;2.380;2022-10-31T17:26:11;14.07;;;3.38;;
4208;SDS011;36320;48.860;2.380;2022-10-31T17:28:38;13.52;;;3.33;;
4208;SDS011;36320;48.860;2.380;2022-10-31T17:31:04;18.48;;;4.40;;
4208;SDS011;36320;48.860;2.380;2022-10-31T17:33:29;13.30;;;3.42;;
4208;SDS011;36320;48.860;2.380;2022-10-31T17:35:55;13.80;;;3.60;;
4208;SDS011;36320;48.860;2.380;2022-10-31T17:38:25;14.20;;;2.70;;
4208;SDS011;36320;48.860;2.380;2022-10-31T17:40:50;10.18;;;2.80;;
4208;SDS011;36320;48.860;2.380;2022-10-31T17:43:18;16.83;;;3.50;;
4208;SDS011;36320;48.860;2.380;2022-10-31T17:45:46;17.20;;;3.13;;